Tonalea, AZ (86044)

5:53 PM MST on October 22, 2014 (GMT -0700)
Winslow-Lindbergh Regional | Change Station
CLOSE
Current Station
Airport
Location: Winslow,
Elevation: 4882 ft
Nearby Weather Stations

Elev 4882 ft 35.03 °N, 110.72 °W | Updated 57 minutes ago

Clear
Clear
74 °F
Feels Like 74 °F
N
5
Wind Variable Wind from East

Today
High -- | Low -- °F
--% Chance of Precip.
Yesterday
High -- | Low -- °F
Precip. -- in
6:36 AM 5:38 PM
Waning Crescent, 1% visible
Pressure 29.97 in
Visibility 10.0 miles
Clouds Clear
Dew Point 37 °F
Humidity 26%
Rainfall 0.00 in
Snow Depth Not available.
UV 0 out of 12
Pollen 4.10 out of 12
Air Quality Not available.
Flu Activity No Activity
METAR KINW 222356Z AUTO 10004KT 10SM CLR 23/03 A3010 RMK AO2 SLP147 T02330028 10250 20200 56006

More Conditions Fewer Conditions

Pressure 29.97 in
Visibility 10.0 miles
Clouds Clear
Dew Point 37 °F
Humidity 26%
Rainfall 0.00 in
Snow Depth Not available.
UV 0 out of 12
Pollen 4.10 out of 12
Air Quality Not available.
Flu Activity No Activity
METAR KINW 222356Z AUTO 10004KT 10SM CLR 23/03 A3010 RMK AO2 SLP147 T02330028 10250 20200 56006

More Conditions Fewer Conditions

10-Day Weather Forecast

Almanac

Astronomy

Oct. 22, 2014 Rise Set
Actual Time 6:36 AM MST 5:38 PM MST
Civil Twilight 6:10 AM MST 6:04 PM MST
Nautical Twilight 5:40 AM MST 6:34 PM MST
Astronomical Twilight 5:10 AM MST 7:04 PM MST
Moon 5:23 AM MST (10/22) 5:05 PM MST (10/22)
Length of Visible Light 11h 54m
Length of Day
11h 02m
Tomorrow will be 2m 7s shorter.
Waning Crescent, 1% of the Moon is Illuminated
Today
Waning Crescent
Oct 23
New
Oct 30
First Quarter
Nov 6
Full
Nov 14
Last Quarter

Today's Extremes

State Highs State Lows

Community

WunderPhotos

Upload Photos

1,764,098 photos uploaded!

WunderBlogs® & News

Nearby

Snow Depth

Station Depth Elevation
Baker Butte 0 in 7300 ft
Baldy 0 in 9125 ft
Maverick Fork 0 in 9200 ft
Beaver Head 0 in 7990 ft
Hannagan Meadows 0 in 9020 ft

Earthquake Activity

City Distance Mag. Time & Date
No recent earthquake activity has been reported nearby.
Minimum magnitude displayed is 2.5.

Coastal Water Temperatures

Place Temperature
No Stations Reporting

Nearby Weather Stations